Time;durP1;ratioP1;P1;durP2;ratioP2;P2;SDS_P1;SDS_P2;PMS_P1;PMS_P2;Temp;Humidity;BMP_temperature;BMP_pressure;BME280_temperature;BME280_humidity;BME280_pressure;Samples;Min_cycle;Max_cycle;Signal;HPM_P1;HPM_P2
2023/04/12 00:00:47;;;;;;;4.45;2.22;;;;;;;24.92;38.02;100210.91;5096320;28;20024;-53
2023/04/12 00:03:19;;;;;;;5.25;2.13;;;;;;;25.01;37.63;100208.25;5095346;28;20051;-50
2023/04/12 00:05:53;;;;;;;8.15;2.47;;;;;;;24.92;37.70;100205.66;5096361;28;20020;-51
2023/04/12 00:08:31;;;;;;;5.97;2.15;;;;;;;24.89;37.94;100176.81;5095743;28;20028;-43
2023/04/12 00:11:02;;;;;;;4.50;2.03;;;;;;;24.82;37.82;100161.97;5094544;28;20036;-50
2023/04/12 00:13:31;;;;;;;3.72;2.20;;;;;;;24.78;37.91;100174.22;5093899;28;20038;-49
2023/04/12 00:16:00;;;;;;;5.03;2.42;;;;;;;24.84;37.84;100162.81;5093631;28;20035;-49
2023/04/12 00:18:29;;;;;;;5.43;2.20;;;;;;;24.82;37.77;100159.34;5095571;28;20027;-52
2023/04/12 00:20:57;;;;;;;3.92;1.67;;;;;;;24.83;37.71;100146.22;5095592;28;20032;-43
2023/04/12 00:23:26;;;;;;;4.40;2.10;;;;;;;24.79;37.89;100149.72;5095632;28;20500;-52
2023/04/12 00:25:54;;;;;;;4.90;2.00;;;;;;;24.81;37.81;100152.38;5093466;28;20059;-44
2023/04/12 00:28:23;;;;;;;3.92;1.80;;;;;;;24.79;38.07;100154.13;5095425;28;20081;-44
2023/04/12 00:30:52;;;;;;;5.63;1.83;;;;;;;24.86;37.81;100146.22;5094015;28;20028;-43
2023/04/12 00:33:20;;;;;;;4.22;1.88;;;;;;;24.78;37.83;100142.72;5095478;28;20028;-50
2023/04/12 00:35:49;;;;;;;3.17;1.63;;;;;;;24.75;38.04;100155.00;5095328;28;20198;-50
2023/04/12 00:38:18;;;;;;;4.22;1.98;;;;;;;24.84;37.79;100150.59;5095102;28;20028;-51
2023/04/12 00:40:47;;;;;;;6.00;2.10;;;;;;;24.77;37.74;100163.75;5094954;28;20024;-51
2023/04/12 00:43:17;;;;;;;4.18;1.75;;;;;;;24.79;37.60;100154.13;5094873;28;20397;-43
2023/04/12 00:45:46;;;;;;;3.97;1.40;;;;;;;24.75;38.01;100168.09;5094827;28;20055;-53
2023/04/12 00:48:16;;;;;;;4.70;1.75;;;;;;;24.77;37.94;100172.47;5095181;28;20095;-54
2023/04/12 00:50:45;;;;;;;3.00;1.38;;;;;;;24.70;37.92;100163.75;5094809;28;20092;-50
2023/04/12 00:53:16;;;;;;;3.70;1.58;;;;;;;24.79;37.65;100172.47;5094732;28;20020;-43
2023/04/12 00:55:45;;;;;;;2.53;1.20;;;;;;;24.82;37.64;100169.84;5094909;28;20024;-52
2023/04/12 00:58:15;;;;;;;3.38;1.42;;;;;;;24.77;37.65;100172.47;5095002;28;20107;-49
2023/04/12 01:00:48;;;;;;;3.97;1.73;;;;;;;24.70;37.88;100173.38;5094651;28;20047;-43
2023/04/12 01:03:21;;;;;;;3.58;1.52;;;;;;;24.72;37.82;100180.34;5093135;28;20472;-43
2023/04/12 01:05:57;;;;;;;2.25;1.17;;;;;;;24.76;37.52;100185.59;5093116;28;20180;-44
2023/04/12 01:08:35;;;;;;;4.97;1.23;;;;;;;24.83;37.43;100192.56;5093428;28;20114;-43
2023/04/12 01:11:42;;;;;;;3.50;1.35;;;;;;;24.90;37.39;100204.78;5093006;28;20045;-51
2023/04/12 01:14:43;;;;;;;3.63;1.60;;;;;;;24.82;37.79;100207.44;5093626;28;20032;-44
2023/04/12 01:17:16;;;;;;;6.20;2.90;;;;;;;24.80;37.43;100226.69;5090383;28;20028;-50
2023/04/12 01:19:53;;;;;;;6.22;2.42;;;;;;;24.73;37.52;100213.56;5094333;28;20123;-54
2023/04/12 01:22:33;;;;;;;5.03;2.20;;;;;;;24.67;37.90;100218.78;5094258;28;20055;-47
2023/04/12 01:25:23;;;;;;;4.00;1.90;;;;;;;24.65;37.85;100214.44;5094222;28;20493;-44
2023/04/12 01:28:00;;;;;;;3.92;1.90;;;;;;;24.63;37.77;100209.19;5086839;28;20043;-44
2023/04/12 01:30:29;;;;;;;3.67;2.22;;;;;;;24.62;38.05;100217.06;5093879;28;20028;-50
2023/04/12 01:33:00;;;;;;;4.95;2.15;;;;;;;24.60;37.88;100221.41;5094155;28;20496;-49
2023/04/12 01:35:32;;;;;;;3.63;2.00;;;;;;;24.68;37.55;100203.94;5081030;28;20032;-43
2023/04/12 01:38:01;;;;;;;4.70;2.10;;;;;;;24.74;37.43;100201.31;5072681;28;20028;-45
2023/04/12 01:40:31;;;;;;;5.30;2.60;;;;;;;24.70;37.73;100200.47;5072176;28;20477;-52
2023/04/12 01:43:12;;;;;;;4.40;1.98;;;;;;;24.57;37.80;100196.09;5073567;28;20057;-43
2023/04/12 01:45:40;;;;;;;3.60;1.80;;;;;;;24.56;37.79;100200.47;5073937;28;20028;-43
2023/04/12 01:48:10;;;;;;;3.20;1.85;;;;;;;24.70;37.47;100194.34;5073820;28;20031;-49
2023/04/12 01:50:58;;;;;;;4.22;1.83;;;;;;;24.67;37.63;100205.66;5072391;28;20439;-50
2023/04/12 01:53:52;;;;;;;3.58;1.70;;;;;;;24.63;37.92;100203.97;5067127;28;20075;-46
2023/04/12 01:56:21;;;;;;;3.13;1.63;;;;;;;24.60;37.88;100196.09;5073405;28;20025;-45
2023/04/12 01:58:51;;;;;;;4.28;1.55;;;;;;;24.62;37.62;100194.34;5073365;28;20485;-44
2023/04/12 02:01:20;;;;;;;2.17;1.42;;;;;;;24.57;37.82;100181.22;5072320;28;20400;-49
2023/04/12 02:03:49;;;;;;;3.97;1.50;;;;;;;24.57;37.86;100177.72;5072191;28;20035;-47
2023/04/12 02:06:19;;;;;;;3.90;1.42;;;;;;;24.50;37.64;100171.63;5073393;28;20030;-49
2023/04/12 02:08:48;;;;;;;4.28;1.70;;;;;;;24.58;37.63;100172.47;5073040;28;20027;-49
2023/04/12 02:11:17;;;;;;;3.47;1.45;;;;;;;24.60;37.47;100169.88;5073558;28;20449;-52
2023/04/12 02:13:46;;;;;;;4.28;1.75;;;;;;;24.51;37.69;100165.50;5073144;28;20028;-51
2023/04/12 02:16:14;;;;;;;6.60;1.83;;;;;;;24.50;37.76;100171.63;5072902;28;20025;-43
2023/04/12 02:18:43;;;;;;;5.75;1.63;;;;;;;24.50;37.69;100168.13;5073209;28;20469;-51
2023/04/12 02:21:11;;;;;;;3.75;1.38;;;;;;;24.48;37.87;100181.25;5073024;28;20094;-43
2023/04/12 02:23:40;;;;;;;3.80;1.48;;;;;;;24.47;37.55;100187.34;5073197;28;20119;-44
2023/04/12 02:26:09;;;;;;;3.30;1.50;;;;;;;24.46;37.94;100185.63;5072973;28;20020;-43
2023/04/12 02:28:39;;;;;;;6.05;1.60;;;;;;;24.49;37.72;100190.84;5072990;28;20033;-52
2023/04/12 02:31:08;;;;;;;3.38;1.63;;;;;;;24.48;37.49;100173.38;5073142;28;20548;-49
2023/04/12 02:33:37;;;;;;;3.78;1.33;;;;;;;24.48;37.79;100181.25;5072042;28;20474;-50
2023/04/12 02:36:06;;;;;;;3.05;1.40;;;;;;;24.48;37.63;100196.13;5072641;28;20025;-53
2023/04/12 02:38:35;;;;;;;2.58;1.23;;;;;;;24.50;37.43;100196.97;5071932;28;20111;-50
2023/04/12 02:41:04;;;;;;;5.15;1.50;;;;;;;24.48;37.60;100202.22;5073577;28;20512;-53
2023/04/12 02:43:33;;;;;;;4.93;1.80;;;;;;;24.47;37.63;100197.00;5070841;28;20059;-43
2023/04/12 02:46:01;;;;;;;2.67;1.20;;;;;;;24.47;37.62;100189.13;5073045;28;20020;-47
2023/04/12 02:48:30;;;;;;;3.00;1.30;;;;;;;24.45;37.54;100188.25;5073125;28;20108;-44
2023/04/12 02:50:59;;;;;;;4.38;1.60;;;;;;;24.49;37.30;100193.47;5072981;28;20047;-50
2023/04/12 02:53:27;;;;;;;2.47;0.90;;;;;;;24.42;37.57;100155.03;5073132;28;20086;-51
2023/04/12 02:56:00;;;;;;;4.13;1.40;;;;;;;24.52;37.27;100183.00;5072490;28;20042;-47
2023/04/12 02:58:28;;;;;;;4.40;1.30;;;;;;;24.44;37.68;100179.50;5072660;28;20025;-49
2023/04/12 03:00:58;;;;;;;2.22;1.08;;;;;;;24.46;37.19;100184.75;5072393;28;20041;-48
2023/04/12 03:03:30;;;;;;;3.65;1.20;;;;;;;24.42;37.57;100190.00;5072702;28;20068;-50
2023/04/12 03:05:59;;;;;;;2.80;1.15;;;;;;;24.39;37.47;100190.00;5072550;28;20025;-51
2023/04/12 03:08:27;;;;;;;3.03;1.20;;;;;;;24.36;37.57;100191.75;5072463;28;20036;-52
2023/04/12 03:10:56;;;;;;;3.58;1.25;;;;;;;24.27;37.59;100188.25;5072704;28;20033;-50
2023/04/12 03:13:25;;;;;;;3.78;1.20;;;;;;;24.37;37.71;100186.50;5072809;28;20477;-43
2023/04/12 03:15:57;;;;;;;2.25;1.10;;;;;;;24.42;37.67;100186.47;5072270;28;20155;-52
2023/04/12 03:18:26;;;;;;;2.83;1.02;;;;;;;24.38;37.70;100177.75;5072240;28;20033;-52
2023/04/12 03:20:55;;;;;;;3.33;1.48;;;;;;;24.36;37.45;100187.38;5072901;28;20036;-49
2023/04/12 03:23:23;;;;;;;7.05;2.58;;;;;;;24.37;37.54;100183.88;5072753;28;20031;-53
2023/04/12 03:25:52;;;;;;;3.15;1.60;;;;;;;24.34;37.44;100183.00;5072057;28;20547;-48
2023/04/12 03:28:22;;;;;;;4.55;2.42;;;;;;;24.26;37.64;100185.63;5072215;28;20035;-48
2023/04/12 03:30:50;;;;;;;5.55;2.30;;;;;;;24.31;37.32;100183.00;5072501;28;20035;-43
2023/04/12 03:33:19;;;;;;;5.03;2.33;;;;;;;24.28;37.70;100182.13;5072645;28;20533;-49
2023/04/12 03:35:48;;;;;;;3.78;2.05;;;;;;;24.32;37.49;100180.41;5072450;28;20044;-51
2023/04/12 03:38:16;;;;;;;4.82;2.35;;;;;;;24.34;37.58;100177.78;5072333;28;20020;-50
2023/04/12 03:40:45;;;;;;;4.65;1.80;;;;;;;24.27;37.52;100182.16;5072504;28;20108;-49
2023/04/12 03:43:13;;;;;;;3.55;1.83;;;;;;;24.23;37.74;100176.03;5072261;28;20098;-50
2023/04/12 03:45:42;;;;;;;3.90;2.00;;;;;;;24.31;37.27;100169.91;5072174;28;20500;-49
2023/04/12 03:48:11;;;;;;;4.07;1.95;;;;;;;24.35;37.61;100161.16;5072208;28;20064;-50
2023/04/12 03:50:43;;;;;;;2.88;1.70;;;;;;;24.31;37.29;100164.66;5073912;28;20409;-49
2023/04/12 03:53:12;;;;;;;6.57;2.08;;;;;;;24.31;37.48;100157.69;5075081;28;20028;-42
2023/04/12 03:55:40;;;;;;;3.13;1.40;;;;;;;24.31;37.13;100159.41;5075787;28;20035;-50
2023/04/12 03:58:08;;;;;;;3.90;2.08;;;;;;;24.31;37.39;100160.31;5075985;28;20028;-51
2023/04/12 04:00:37;;;;;;;3.70;1.58;;;;;;;24.21;37.28;100155.94;5074477;28;20032;-53
2023/04/12 04:03:06;;;;;;;4.07;1.90;;;;;;;24.23;37.27;100149.84;5075430;28;20025;-52
2023/04/12 04:05:35;;;;;;;4.80;2.10;;;;;;;24.15;37.77;100146.34;5075853;28;20053;-48
2023/04/12 04:08:05;;;;;;;4.30;1.67;;;;;;;24.26;37.62;100148.94;5075841;28;20023;-52
2023/04/12 04:10:34;;;;;;;5.53;1.70;;;;;;;24.19;37.33;100149.81;5075742;28;20098;-52
2023/04/12 04:13:02;;;;;;;2.67;1.58;;;;;;;24.13;37.43;100161.19;5075899;28;20078;-52
2023/04/12 04:15:31;;;;;;;5.25;1.80;;;;;;;24.19;37.57;100155.06;5073949;28;20444;-49
2023/04/12 04:17:59;;;;;;;3.72;1.60;;;;;;;24.23;37.24;100147.22;5075351;28;20542;-53
2023/04/12 04:20:28;;;;;;;4.25;1.70;;;;;;;24.20;37.49;100151.56;5075004;28;20042;-49
2023/04/12 04:22:56;;;;;;;3.45;1.48;;;;;;;24.19;37.44;100155.06;5075398;28;20047;-50
2023/04/12 04:25:28;;;;;;;4.13;1.60;;;;;;;24.19;37.67;100169.03;5075180;28;20541;-51
2023/04/12 04:27:58;;;;;;;4.95;1.45;;;;;;;24.18;37.63;100183.03;5075760;28;20387;-47
2023/04/12 04:30:27;;;;;;;3.50;1.80;;;;;;;24.16;37.66;100195.25;5074970;28;20033;-50
2023/04/12 04:32:55;;;;;;;2.95;1.52;;;;;;;24.14;37.65;100185.66;5075286;28;20043;-50
2023/04/12 04:35:24;;;;;;;5.18;1.60;;;;;;;24.19;37.77;100189.13;5074942;28;20494;-44
2023/04/12 04:37:54;;;;;;;5.47;2.33;;;;;;;24.18;37.40;100192.63;5075144;28;20029;-49
2023/04/12 04:40:23;;;;;;;5.30;2.65;;;;;;;24.15;37.79;100195.25;5075114;28;20090;-46
2023/04/12 04:42:53;;;;;;;4.50;1.90;;;;;;;24.17;37.42;100202.25;5074755;28;20490;-48
2023/04/12 04:45:27;;;;;;;4.38;2.28;;;;;;;24.15;37.47;100190.03;5074757;28;20028;-50
2023/04/12 04:47:56;;;;;;;4.88;2.03;;;;;;;24.15;38.01;100203.13;5075036;28;20032;-50
2023/04/12 04:50:26;;;;;;;3.78;2.25;;;;;;;24.17;37.66;100197.00;5074765;28;20033;-44
2023/04/12 04:52:55;;;;;;;7.07;1.90;;;;;;;24.18;37.47;100192.63;5074334;28;20440;-50
2023/04/12 04:55:24;;;;;;;3.10;1.60;;;;;;;24.18;37.63;100195.22;5074720;28;20037;-50
2023/04/12 04:57:53;;;;;;;3.33;1.70;;;;;;;24.14;37.50;100183.88;5074785;28;20116;-52
2023/04/12 05:00:24;;;;;;;4.63;2.13;;;;;;;24.11;37.48;100189.13;5074258;28;20055;-50
2023/04/12 05:02:53;;;;;;;4.00;1.60;;;;;;;24.07;37.74;100183.03;5074449;28;20036;-50
2023/04/12 05:05:22;;;;;;;4.80;1.77;;;;;;;24.09;37.52;100188.25;5074363;28;20067;-50
2023/04/12 05:07:51;;;;;;;4.38;1.83;;;;;;;24.09;37.48;100191.75;5074392;28;20021;-53
2023/04/12 05:10:20;;;;;;;5.55;2.20;;;;;;;24.04;37.72;100190.88;5074665;28;20035;-51
2023/04/12 05:12:51;;;;;;;3.85;1.55;;;;;;;24.14;37.58;100190.91;5074027;28;20063;-53
2023/04/12 05:15:20;;;;;;;2.70;1.20;;;;;;;24.11;37.53;100186.50;5073108;28;20055;-49
2023/04/12 05:17:49;;;;;;;3.88;1.70;;;;;;;24.07;37.76;100192.63;5074030;28;20053;-44
2023/04/12 05:20:18;;;;;;;3.78;1.65;;;;;;;24.03;37.57;100194.38;5074144;28;20024;-50
2023/04/12 05:22:47;;;;;;;3.15;1.55;;;;;;;23.95;38.06;100186.47;5074246;28;20371;-43
2023/04/12 05:25:15;;;;;;;4.03;1.75;;;;;;;24.04;37.63;100184.78;5074026;28;20041;-45
2023/04/12 05:27:44;;;;;;;2.72;1.40;;;;;;;24.08;37.61;100186.50;5073958;28;20027;-52
2023/04/12 05:30:13;;;;;;;3.72;1.40;;;;;;;24.05;37.72;100170.81;5074075;28;20047;-52
2023/04/12 05:32:41;;;;;;;3.88;1.95;;;;;;;24.02;37.94;100186.50;5073551;28;20454;-53
2023/04/12 05:35:10;;;;;;;4.60;1.80;;;;;;;24.04;37.77;100185.63;5073756;28;20056;-46
2023/04/12 05:37:39;;;;;;;3.47;1.42;;;;;;;23.99;37.72;100176.91;5073982;28;20097;-51
2023/04/12 05:40:08;;;;;;;2.65;1.38;;;;;;;23.99;37.54;100181.25;5073966;28;20020;-50
2023/04/12 05:42:37;;;;;;;3.38;1.30;;;;;;;23.93;37.76;100182.09;5072822;28;20118;-49
2023/04/12 05:45:06;;;;;;;8.20;1.45;;;;;;;23.89;37.57;100182.97;5073288;28;20474;-52
2023/04/12 05:47:36;;;;;;;3.53;1.45;;;;;;;23.89;37.36;100177.72;5073819;28;20059;-47
2023/04/12 05:50:05;;;;;;;3.85;2.00;;;;;;;23.92;37.85;100173.34;5073710;28;20025;-49
2023/04/12 05:52:34;;;;;;;2.35;0.95;;;;;;;23.82;37.84;100174.22;5073822;28;20083;-53
2023/04/12 05:55:04;;;;;;;2.80;1.23;;;;;;;23.84;37.83;100180.34;5073512;28;20044;-43
2023/04/12 05:57:32;;;;;;;5.90;1.30;;;;;;;23.77;37.86;100221.38;5073625;28;20036;-54
2023/04/12 06:00:01;;;;;;;3.63;1.35;;;;;;;23.80;37.83;100228.34;5073660;28;20024;-46
2023/04/12 06:02:30;;;;;;;3.95;1.75;;;;;;;23.76;37.66;100229.22;5073357;28;20082;-53
2023/04/12 06:04:58;;;;;;;7.22;1.60;;;;;;;23.83;37.30;100238.84;5072040;28;20036;-52
2023/04/12 06:07:28;;;;;;;4.63;1.38;;;;;;;23.75;37.26;100241.44;5073592;28;20032;-50
2023/04/12 06:09:56;;;;;;;4.20;1.17;;;;;;;23.87;37.15;100234.47;5073332;28;20127;-45
2023/04/12 06:12:25;;;;;;;5.15;1.65;;;;;;;23.92;37.09;100240.59;5073901;28;20020;-50
2023/04/12 06:14:54;;;;;;;6.93;1.52;;;;;;;23.97;37.48;100233.69;5080228;28;20496;-43
2023/04/12 06:17:23;;;;;;;4.63;1.70;;;;;;;23.87;37.61;100221.38;5093363;28;20028;-54
2023/04/12 06:19:51;;;;;;;3.08;1.10;;;;;;;23.95;37.45;100225.75;5093757;28;20073;-47
2023/04/12 06:22:20;;;;;;;4.20;1.00;;;;;;;23.81;37.67;100223.13;5093098;28;20031;-50
2023/04/12 06:24:49;;;;;;;3.90;1.30;;;;;;;23.79;37.92;100229.22;5093036;28;20059;-43
2023/04/12 06:27:19;;;;;;;6.70;2.10;;;;;;;23.80;37.66;100217.88;5093301;28;20024;-50
2023/04/12 06:29:48;;;;;;;3.47;1.38;;;;;;;23.76;37.61;100227.47;5092150;28;20028;-44
2023/04/12 06:32:16;;;;;;;7.88;1.45;;;;;;;23.76;38.01;100224.88;5093439;28;20062;-50
2023/04/12 06:34:45;;;;;;;2.88;1.30;;;;;;;23.83;37.84;100238.84;5091948;28;20020;-54
2023/04/12 06:37:14;;;;;;;3.30;1.05;;;;;;;23.89;37.56;100232.75;5093289;28;20031;-49
2023/04/12 06:39:43;;;;;;;2.85;1.40;;;;;;;23.93;37.69;100237.13;5093315;28;20073;-52
2023/04/12 06:42:12;;;;;;;4.10;1.35;;;;;;;23.99;37.68;100250.28;5092810;28;20028;-49
2023/04/12 06:44:40;;;;;;;5.57;1.20;;;;;;;24.03;37.16;100243.28;5093220;28;20047;-50
2023/04/12 06:47:09;;;;;;;7.45;1.20;;;;;;;24.10;37.47;100248.53;5092996;28;20103;-43
2023/04/12 06:49:38;;;;;;;3.45;1.23;;;;;;;24.08;37.25;100252.00;5093124;28;20040;-49
2023/04/12 06:52:06;;;;;;;9.57;1.35;;;;;;;24.06;37.82;100253.78;5093041;28;20024;-53
2023/04/12 06:54:39;;;;;;;7.57;1.20;;;;;;;24.07;37.90;100252.91;5092859;28;20086;-46
2023/04/12 06:57:10;;;;;;;7.18;1.20;;;;;;;24.06;37.91;100241.53;5093400;28;20048;-49
2023/04/12 06:59:39;;;;;;;4.82;1.27;;;;;;;24.12;37.88;100238.94;5092901;28;20494;-52
2023/04/12 07:02:08;;;;;;;3.60;1.10;;;;;;;24.12;37.72;100246.78;5091377;28;20030;-48
2023/04/12 07:04:36;;;;;;;7.97;1.65;;;;;;;24.13;38.05;100234.53;5093000;28;20110;-52
2023/04/12 07:07:05;;;;;;;2.95;1.00;;;;;;;24.24;38.02;100252.91;5092730;28;20028;-51
2023/04/12 07:09:34;;;;;;;4.63;1.20;;;;;;;24.26;37.90;100248.53;5093207;28;20020;-43
2023/04/12 07:15:25;;;;;;;6.18;1.45;;;;;;;24.29;37.27;100245.94;5091566;28;20088;-51
2023/04/12 07:17:54;;;;;;;6.78;1.35;;;;;;;24.41;37.17;100240.69;5092785;28;20028;-44
2023/04/12 07:20:23;;;;;;;7.63;1.20;;;;;;;24.42;36.88;100255.53;5092764;28;20028;-50
2023/04/12 07:22:51;;;;;;;7.35;1.65;;;;;;;24.42;36.58;100288.72;5093052;28;20036;-49
2023/04/12 07:25:20;;;;;;;3.47;1.63;;;;;;;24.40;36.44;100301.84;5093885;28;20032;-51
2023/04/12 07:27:48;;;;;;;6.65;1.30;;;;;;;24.39;36.55;100291.38;5096382;28;20024;-49
2023/04/12 07:30:17;;;;;;;6.45;1.60;;;;;;;24.41;36.43;100292.22;5096675;28;20032;-51
2023/04/12 07:32:46;;;;;;;5.32;1.40;;;;;;;24.38;36.69;100276.50;5096700;28;20089;-49
2023/04/12 07:35:14;;;;;;;7.82;1.90;;;;;;;24.39;36.02;100275.63;5096409;28;20397;-52
2023/04/12 07:37:43;;;;;;;4.20;1.63;;;;;;;24.33;36.28;100271.25;5096516;28;20046;-44
2023/04/12 07:40:11;;;;;;;4.50;1.27;;;;;;;24.30;36.74;100276.50;5097089;28;20117;-52
2023/04/12 07:42:40;;;;;;;7.40;1.67;;;;;;;24.31;36.44;100266.88;5095865;28;20043;-48
2023/04/12 07:45:09;;;;;;;4.60;1.38;;;;;;;24.34;35.85;100280.00;5096553;28;20046;-52
2023/04/12 07:47:37;;;;;;;9.05;1.98;;;;;;;24.30;35.97;100275.63;5096261;28;20020;-52
2023/04/12 07:50:06;;;;;;;4.22;1.33;;;;;;;24.30;35.77;100275.63;5094802;28;20047;-52
2023/04/12 07:52:35;;;;;;;3.88;1.48;;;;;;;24.30;35.09;100263.41;5096488;28;20027;-48
2023/04/12 07:55:05;;;;;;;6.80;1.67;;;;;;;24.33;35.13;100267.75;5096249;28;20465;-48
2023/04/12 07:57:33;;;;;;;9.05;1.60;;;;;;;24.27;35.41;100269.50;5096483;28;20024;-45
2023/04/12 08:00:04;;;;;;;4.60;1.60;;;;;;;24.36;35.19;100266.00;5094745;28;20024;-43
2023/04/12 08:02:36;;;;;;;7.10;1.63;;;;;;;24.32;35.31;100252.91;5096226;28;20149;-49
2023/04/12 08:05:05;;;;;;;6.43;1.70;;;;;;;24.38;34.79;100269.50;5094434;28;20526;-52
2023/04/12 08:07:34;;;;;;;7.32;2.00;;;;;;;24.31;34.99;100252.03;5095653;28;20496;-48
2023/04/12 08:10:02;;;;;;;5.70;1.50;;;;;;;24.27;35.35;100266.00;5094517;28;20073;-49
2023/04/12 08:12:31;;;;;;;8.75;2.17;;;;;;;24.25;35.04;100270.38;5095691;28;20030;-53
2023/04/12 08:15:00;;;;;;;8.20;1.75;;;;;;;24.19;34.95;100275.59;5094348;28;20032;-50
2023/04/12 08:17:29;;;;;;;8.60;2.75;;;;;;;24.26;34.49;100274.75;5095764;28;20047;-42
2023/04/12 08:19:57;;;;;;;4.70;1.30;;;;;;;24.19;34.70;100286.97;5095331;28;20027;-46
2023/04/12 08:22:26;;;;;;;7.65;2.10;;;;;;;24.20;34.79;100278.25;5095505;28;20115;-42
2023/04/12 08:24:54;;;;;;;5.55;1.77;;;;;;;24.26;34.77;100280.00;5095252;28;20031;-52
2023/04/12 08:27:23;;;;;;;6.82;1.90;;;;;;;24.35;34.42;100282.59;5095504;28;20024;-49
2023/04/12 08:29:52;;;;;;;8.20;1.90;;;;;;;24.33;34.35;100284.34;5095394;28;20144;-49
2023/04/12 08:32:21;;;;;;;7.60;2.33;;;;;;;24.26;34.22;100280.84;5095353;28;20099;-50
2023/04/12 08:34:49;;;;;;;9.63;2.03;;;;;;;24.24;34.20;100273.88;5095464;28;20035;-50
2023/04/12 08:37:18;;;;;;;6.93;1.67;;;;;;;24.20;34.34;100293.06;5094924;28;20032;-49
2023/04/12 08:39:46;;;;;;;9.82;2.47;;;;;;;24.24;34.63;100284.34;5094929;28;20388;-49
2023/04/12 08:42:16;;;;;;;7.15;1.75;;;;;;;24.21;34.75;100292.22;5094784;28;20470;-44
2023/04/12 08:44:45;;;;;;;8.55;2.50;;;;;;;24.22;34.23;100267.75;5095238;28;20032;-48
2023/04/12 08:47:13;;;;;;;10.15;2.13;;;;;;;24.17;34.62;100290.44;5095055;28;20028;-48
2023/04/12 08:49:42;;;;;;;6.10;1.73;;;;;;;24.12;34.17;100290.44;5095124;28;20119;-48
2023/04/12 08:52:11;;;;;;;6.35;2.10;;;;;;;24.12;33.78;100283.47;5095120;28;20020;-46
2023/04/12 08:54:39;;;;;;;8.38;1.75;;;;;;;24.15;34.31;100292.22;5094987;28;20042;-49
2023/04/12 08:57:09;;;;;;;6.45;2.35;;;;;;;24.18;33.66;100300.94;5095019;28;20020;-49
2023/04/12 08:59:39;;;;;;;11.40;2.03;;;;;;;24.14;34.02;100299.19;5094895;28;20020;-48
2023/04/12 09:02:07;;;;;;;9.70;2.60;;;;;;;24.16;33.86;100300.06;5095042;28;20035;-51
2023/04/12 09:04:48;;;;;;;11.88;3.78;;;;;;;24.15;33.45;100300.94;5092709;28;20024;-53
2023/04/12 09:07:18;;;;;;;22.05;11.52;;;;;;;24.09;34.04;100293.06;5094717;28;20031;-43
2023/04/12 09:09:48;;;;;;;36.75;19.50;;;;;;;24.10;34.09;100295.69;5094556;28;20043;-43
2023/04/12 09:12:18;;;;;;;53.42;30.85;;;;;;;24.08;34.32;100300.06;5094952;28;20540;-49
2023/04/12 09:14:47;;;;;;;64.47;37.20;;;;;;;24.04;34.93;100300.06;5094648;28;20032;-49
2023/04/12 09:17:35;;;;;;;74.22;43.10;;;;;;;24.18;34.77;100313.16;5094081;28;20042;-49
2023/04/12 09:20:24;;;;;;;79.40;47.83;;;;;;;24.24;34.67;100300.06;5094415;28;20020;-48
2023/04/12 09:22:54;;;;;;;82.75;46.75;;;;;;;24.17;34.78;100300.94;5093907;28;20542;-52
2023/04/12 09:25:44;;;;;;;85.07;50.25;;;;;;;24.17;34.38;100306.16;5092787;28;20066;-52
2023/04/12 09:28:25;;;;;;;88.57;54.15;;;;;;;24.06;34.60;100293.94;5089932;28;20024;-48
2023/04/12 09:30:55;;;;;;;70.45;41.10;;;;;;;24.00;33.65;100309.63;5091276;28;20082;-49
2023/04/12 09:33:32;;;;;;;73.13;42.33;;;;;;;23.96;33.76;100298.28;5092364;28;20023;-48
2023/04/12 09:36:01;;;;;;;90.88;54.72;;;;;;;23.96;34.24;100307.88;5093552;28;20024;-46
2023/04/12 09:38:30;;;;;;;73.45;43.60;;;;;;;23.93;33.83;100302.63;5091755;28;20024;-47
2023/04/12 09:40:59;;;;;;;66.65;39.50;;;;;;;23.81;33.20;100313.91;5092178;28;20450;-51
2023/04/12 09:43:47;;;;;;;61.20;37.40;;;;;;;23.84;33.11;100311.31;5091542;28;20106;-49
2023/04/12 09:46:15;;;;;;;56.45;33.50;;;;;;;23.79;33.21;100305.19;5093120;28;20047;-50
2023/04/12 09:48:50;;;;;;;65.45;38.75;;;;;;;23.63;33.04;100304.25;5092041;28;20022;-49
2023/04/12 09:52:37;;;;;;;70.13;40.13;;;;;;;23.55;33.28;100309.47;5093057;27;20412;-45
2023/04/12 09:55:09;;;;;;;66.57;40.28;;;;;;;23.47;33.36;100309.44;5079637;28;20041;-46
2023/04/12 09:57:40;;;;;;;80.68;49.38;;;;;;;23.49;33.82;100310.31;5079287;28;20055;-49
2023/04/12 10:00:13;;;;;;;69.32;43.25;;;;;;;23.43;33.61;100312.91;5089664;28;20398;-45
2023/04/12 10:02:42;;;;;;;88.93;51.85;;;;;;;23.59;33.65;100308.59;5088840;28;20029;-47
2023/04/12 10:05:12;;;;;;;75.55;48.72;;;;;;;23.49;33.67;100297.22;5084250;28;20024;-49
2023/04/12 10:07:43;;;;;;;81.85;46.58;;;;;;;23.49;33.65;100297.22;5083938;28;20104;-48
2023/04/12 10:10:13;;;;;;;89.43;53.30;;;;;;;23.56;33.69;100297.25;5089405;28;20382;-48
2023/04/12 10:12:41;;;;;;;99.82;58.15;;;;;;;23.61;33.75;100301.63;5086970;28;20469;-48
2023/04/12 10:15:14;;;;;;;96.10;58.10;;;;;;;23.51;34.27;100298.09;5087976;28;20054;-44
2023/04/12 10:18:00;;;;;;;94.10;54.17;;;;;;;23.52;34.07;100288.50;5087443;28;20029;-50
2023/04/12 10:20:28;;;;;;;78.45;49.88;;;;;;;23.46;34.53;100297.22;5087618;28;20036;-49
2023/04/12 10:22:58;;;;;;;89.32;58.97;;;;;;;23.41;34.80;100292.81;5089449;28;20112;-51
2023/04/12 10:25:28;;;;;;;97.72;57.33;;;;;;;23.41;34.32;100292.81;5084973;28;20547;-42
2023/04/12 10:27:55;;;;;;;90.85;55.90;;;;;;;23.34;34.30;100313.72;5087067;28;20032;-48
2023/04/12 10:30:27;;;;;;;105.05;60.05;;;;;;;23.42;34.39;100305.03;5086312;28;20048;-45
2023/04/12 10:33:04;;;;;;;95.57;58.10;;;;;;;23.51;34.81;100308.56;5085210;28;20445;-46
2023/04/12 10:35:50;;;;;;;82.07;51.72;;;;;;;23.47;34.41;100296.34;5088830;28;20016;-43
2023/04/12 10:38:18;;;;;;;89.30;54.90;;;;;;;23.43;34.68;100306.78;5079178;28;20432;-46
2023/04/12 10:41:06;;;;;;;83.85;50.50;;;;;;;23.45;33.95;100302.41;5087781;28;20020;-49
2023/04/12 10:43:33;;;;;;;77.82;45.58;;;;;;;23.34;34.00;100323.31;5081059;28;20139;-48
2023/04/12 10:46:05;;;;;;;86.20;50.78;;;;;;;23.38;34.19;100317.22;5087376;28;20020;-51
2023/04/12 10:48:36;;;;;;;82.22;50.58;;;;;;;23.28;34.16;100325.91;5087227;28;20032;-49
2023/04/12 10:51:25;;;;;;;89.05;52.80;;;;;;;23.40;34.51;100327.72;5067766;28;20433;-43
2023/04/12 10:53:55;;;;;;;78.80;48.38;;;;;;;23.40;34.17;100315.50;5068454;28;20041;-44
2023/04/12 10:56:31;;;;;;;82.90;49.55;;;;;;;23.30;33.92;100317.19;5067766;28;20032;-49
2023/04/12 10:59:00;;;;;;;79.75;50.67;;;;;;;23.33;34.25;100327.69;5068592;28;20033;-45
2023/04/12 11:01:29;;;;;;;77.03;47.28;;;;;;;23.33;33.91;100330.28;5075252;28;20045;-51
2023/04/12 11:04:05;;;;;;;78.57;48.95;;;;;;;23.25;34.33;100325.88;5072941;28;20040;-50
2023/04/12 11:06:51;;;;;;;74.10;46.25;;;;;;;23.30;34.05;100316.31;5073591;28;20031;-43
2023/04/12 11:09:25;;;;;;;85.57;52.95;;;;;;;23.29;34.31;100323.28;5067059;28;20135;-47
2023/04/12 11:12:13;;;;;;;94.68;57.17;;;;;;;23.24;34.34;100316.28;5074668;28;20405;-50
2023/04/12 11:14:51;;;;;;;87.97;53.60;;;;;;;23.11;34.75;100326.66;5074812;28;20032;-50
2023/04/12 11:17:19;;;;;;;55.83;37.05;;;;;;;23.19;33.67;100317.09;5070700;28;20028;-50
2023/04/12 11:19:53;;;;;;;75.75;47.55;;;;;;;23.11;34.05;100310.94;5067340;28;20025;-48
2023/04/12 11:22:24;;;;;;;73.72;45.60;;;;;;;23.03;34.61;100315.22;5074839;28;20020;-48
2023/04/12 11:24:55;;;;;;;76.20;47.22;;;;;;;23.14;34.21;100325.78;5073591;28;20029;-50
2023/04/12 11:27:25;;;;;;;71.85;47.58;;;;;;;23.13;34.47;100332.75;5069946;28;20055;-45
2023/04/12 11:29:55;;;;;;;89.18;55.35;;;;;;;23.15;34.67;100331.03;5074191;28;20130;-50
2023/04/12 11:32:26;;;;;;;88.60;54.35;;;;;;;23.18;34.84;100312.72;5074583;28;20036;-47
2023/04/12 11:34:56;;;;;;;87.22;54.53;;;;;;;23.17;34.57;100339.75;5073273;28;20052;-51
2023/04/12 11:37:25;;;;;;;82.43;52.42;;;;;;;23.13;34.42;100339.72;5066640;28;20024;-50
2023/04/12 11:39:57;;;;;;;86.72;52.17;;;;;;;23.10;34.60;100335.34;5073887;28;20098;-43
2023/04/12 11:42:26;;;;;;;79.80;50.80;;;;;;;23.14;34.32;100336.25;5074439;28;20020;-48